• Join FlightAware (Why Join?)
  • Login
  • US Flag 
08:26PM EDT


 

Airport Tracker/Info


-or-


 

Live Flight TrackerFlight Track Log ✈ SKW6335 ✈ 02-May-2013 ✈ KLAX - KSAN

Flight Track Log - Related Links

Times and Time Zones

All times are in EDT time to prevent confusion due to time zone crossing. See the SKW6335 flight status page for this flight to view local times or setup timezone preferences in your user account.

Time Position Orientation Groundspeed Altitude Reporting Facility
EDT Latitude Longitude Course Direction KTS MPH feet Rate Location/Type
06:11PM 33.9000 -118.4500 140° Southeast 178 205 3,000  Level Southern California TRACON
06:12PM 33.8500 -118.4667 195° South 201 231 4,300 1,140 Climbing Southern California TRACON
06:13PM 33.8125 -118.4681 182° South 206 237 4,900 1,080 Climbing Los Angeles Center
06:14PM 33.6897 -118.1495 139° Southeast  Level Estimated
06:14PM 33.7561 -118.4514 166° South 226 260 6,200  Level Los Angeles Center
06:15PM 33.6266 -118.0847 139° Southeast  Level FlightAware Approximate
06:15PM 33.7147 -118.3792 125° Southeast 224 258 7,100  Level Los Angeles Center
06:16PM 33.5635 -118.0201 140° Southeast  Level FlightAware Approximate
06:16PM 33.6814 -118.3167 123° Southeast 229 264 8,400  Level Los Angeles Center
06:17PM 33.5004 -117.9556 140° Southeast  Level FlightAware Approximate
06:17PM 33.6414 -118.2636 132° Southeast 216 249 9,100  Level Los Angeles Center
06:18PM 33.5969 -118.2058 133° Southeast 228 262 9,000  Descending Los Angeles Center
06:19PM 33.5392 -118.1331 134° Southeast 245 282 9,100  Climbing Los Angeles Center
06:20PM 33.4922 -118.0692 131° Southeast 252 290 9,100  Level Los Angeles Center
06:21PM 33.4553 -117.9975 122° Southeast 253 291 9,100  Level Los Angeles Center
06:22PM 33.4194 -117.9272 121° Southeast 250 288 9,100  Level Los Angeles Center
06:23PM 33.3833 -117.8500 119° Southeast 252 290 9,100  Level Southern California TRACON
06:24PM 33.3417 -117.7886 129° Southeast 251 289 9,100  Level Los Angeles Center
06:25PM 33.2947 -117.7053 124° Southeast 252 290 9,100  Level Los Angeles Center
06:26PM 33.2561 -117.6353 123° Southeast 252 290 9,100  Level Los Angeles Center
06:27PM 33.2167 -117.5667 124° Southeast 253 291 9,100  Level Southern California TRACON
06:28PM 33.1833 -117.5000 121° Southeast 252 290 9,100 -180 Level Southern California TRACON
06:29PM 33.1333 -117.4333 132° Southeast 257 296 8,800 -600 Descending Southern California TRACON
06:30PM 33.0667 -117.4000 157° South 266 306 7,900 -1,020 Descending Southern California TRACON
06:30PM 33.0514 -117.3889 149° Southeast 266 306 7,600 -840 Descending Los Angeles Center
06:31PM 33.0000 -117.3667 160° South 264 304 7,100 -300 Descending Southern California TRACON
06:32PM 32.9333 -117.3167 148° Southeast 249 287 7,100  Level Southern California TRACON
06:33PM 32.9000 -117.2667 128° Southeast 233 268 7,100  Level Southern California TRACON
06:34PM 32.8500 -117.2167 140° Southeast 236 272 7,100  Level Southern California TRACON
06:35PM 32.8372 -117.1978 129° Southeast 232 267 7,100 -120 Level Los Angeles Center
06:36PM 32.7989 -117.1283 123° Southeast 224 258 7,000 -120 Descending Los Angeles Center
06:36PM 32.8000 -117.1000 87° East 191 220 7,000 -720 Level Southern California TRACON
06:37PM 32.7833 -117.0333 107° East 183 211 5,900 -1,080 Descending Southern California TRACON
06:38PM 32.7500 -117.0000 140° Southeast 204 235 4,800 -1,140 Descending Southern California TRACON